createdAt,value
2019-02-14T00:01:34.867Z,18.77
2019-02-14T00:04:03.508Z,17.37
2019-02-14T00:06:32.407Z,19.33
2019-02-14T00:09:01.329Z,19.30
2019-02-14T00:11:30.504Z,20.53
2019-02-14T00:13:59.155Z,18.40
2019-02-14T00:16:27.791Z,18.87
2019-02-14T00:18:56.660Z,19.53
2019-02-14T00:21:25.336Z,20.07
2019-02-14T00:23:53.960Z,20.50
2019-02-14T00:26:22.620Z,15.60
2019-02-14T00:28:51.467Z,20.37
2019-02-14T00:31:20.328Z,20.27
2019-02-14T00:33:49.394Z,20.33
2019-02-14T00:36:18.246Z,20.73
2019-02-14T00:38:46.963Z,19.63
2019-02-14T00:41:15.606Z,20.77
2019-02-14T00:43:44.251Z,20.13
2019-02-14T00:46:12.891Z,20.60
2019-02-14T00:48:41.498Z,21.67
2019-02-14T00:51:10.475Z,21.90
2019-02-14T00:53:39.159Z,21.83
2019-02-14T00:56:07.808Z,20.30
2019-02-14T00:58:36.594Z,21.20
2019-02-14T01:01:05.274Z,20.13
2019-02-14T01:03:34.177Z,20.07
2019-02-14T01:06:02.849Z,20.20
2019-02-14T01:08:31.439Z,20.37
2019-02-14T01:11:00.090Z,21.03
2019-02-14T01:13:28.707Z,21.27
2019-02-14T01:15:57.344Z,20.20
2019-02-14T01:18:25.972Z,21.53
2019-02-14T01:20:54.629Z,21.73
2019-02-14T01:23:23.281Z,23.03
2019-02-14T01:25:52.082Z,21.30
2019-02-14T01:28:20.663Z,22.30
2019-02-14T01:30:49.279Z,21.60
2019-02-14T01:33:17.951Z,23.97
2019-02-14T01:35:46.713Z,22.87
2019-02-14T01:38:15.979Z,23.97
2019-02-14T01:40:44.923Z,23.93
2019-02-14T01:43:13.559Z,23.90
2019-02-14T01:45:42.460Z,24.53
2019-02-14T01:48:11.156Z,23.70
2019-02-14T01:50:39.863Z,24.23
2019-02-14T01:53:08.482Z,24.93
2019-02-14T01:55:37.103Z,23.83
2019-02-14T01:58:06.088Z,24.97
2019-02-14T02:00:35.215Z,25.57
2019-02-14T02:03:03.975Z,27.87
2019-02-14T02:05:32.615Z,25.80
2019-02-14T02:08:01.233Z,26.20
2019-02-14T02:10:30.011Z,25.97
2019-02-14T02:12:59.480Z,25.40
2019-02-14T02:15:28.152Z,26.60
2019-02-14T02:17:56.788Z,25.20
2019-02-14T02:20:33.059Z,25.03
2019-02-14T02:22:55.974Z,26.17
2019-02-14T02:25:24.679Z,26.40
2019-02-14T02:27:53.516Z,26.13
2019-02-14T02:30:22.374Z,26.20
2019-02-14T02:32:50.991Z,26.20
2019-02-14T02:35:19.640Z,26.37
2019-02-14T02:37:48.260Z,25.17
2019-02-14T02:40:16.891Z,26.20
2019-02-14T02:42:45.513Z,26.70
2019-02-14T02:45:14.301Z,25.53
2019-02-14T02:47:42.998Z,27.40
2019-02-14T02:50:12.425Z,26.97
2019-02-14T02:52:41.323Z,24.70
2019-02-14T02:55:10.247Z,25.73
2019-02-14T02:57:38.952Z,26.37
2019-02-14T03:00:11.288Z,26.57
2019-02-14T03:02:39.911Z,26.17
2019-02-14T03:05:09.875Z,26.43
2019-02-14T03:07:38.592Z,27.00
2019-02-14T03:10:08.125Z,27.57
2019-02-14T03:12:36.793Z,26.50
2019-02-14T03:15:06.050Z,26.00
2019-02-14T03:17:34.860Z,25.00
2019-02-14T03:20:03.571Z,25.80
2019-02-14T03:22:32.403Z,25.50
2019-02-14T03:25:01.123Z,25.30
2019-02-14T03:27:29.782Z,24.63
2019-02-14T03:29:58.380Z,26.40
2019-02-14T03:32:27.027Z,25.57
2019-02-14T03:34:55.637Z,25.53
2019-02-14T03:37:24.323Z,25.70
2019-02-14T03:39:52.945Z,26.90
2019-02-14T03:42:21.585Z,27.17
2019-02-14T03:44:50.296Z,27.57
2019-02-14T03:47:18.891Z,26.50
2019-02-14T03:49:47.556Z,27.23
2019-02-14T03:52:16.213Z,28.00
2019-02-14T03:54:44.828Z,28.50
2019-02-14T03:57:13.455Z,26.50
2019-02-14T03:59:42.065Z,27.80
2019-02-14T04:02:10.746Z,28.40
2019-02-14T04:04:39.335Z,27.17
2019-02-14T04:07:08.197Z,26.00
2019-02-14T04:09:36.811Z,25.53
2019-02-14T04:12:05.438Z,25.60
2019-02-14T04:14:36.578Z,26.80
2019-02-14T04:17:05.273Z,27.93
2019-02-14T04:19:34.124Z,27.90
2019-02-14T04:22:02.764Z,26.87
2019-02-14T04:24:31.378Z,26.70
2019-02-14T04:27:00.015Z,26.97
2019-02-14T04:29:28.627Z,27.93
2019-02-14T04:31:57.264Z,27.40
2019-02-14T04:34:26.103Z,26.93
2019-02-14T04:36:55.861Z,27.10
2019-02-14T04:39:24.552Z,28.70
2019-02-14T04:41:53.496Z,27.30
2019-02-14T04:44:22.119Z,26.97
2019-02-14T04:46:50.797Z,26.87
2019-02-14T04:49:19.434Z,28.07
2019-02-14T04:51:48.060Z,27.13
2019-02-14T04:54:16.691Z,26.17
2019-02-14T04:56:45.334Z,27.60
2019-02-14T04:59:14.182Z,27.53
2019-02-14T05:01:42.807Z,26.30
2019-02-14T05:04:11.502Z,25.20
2019-02-14T05:06:44.390Z,26.30
2019-02-14T05:09:10.847Z,25.70
2019-02-14T05:11:39.483Z,26.67
2019-02-14T05:14:08.120Z,24.40
2019-02-14T05:16:36.768Z,25.57
2019-02-14T05:19:05.499Z,24.90
2019-02-14T05:21:45.747Z,25.73
2019-02-14T05:24:19.805Z,24.53
2019-02-14T05:27:14.192Z,25.33
2019-02-14T05:29:45.690Z,24.07
2019-02-14T05:32:14.942Z,26.40
2019-02-14T05:34:43.564Z,25.67
2019-02-14T05:37:13.296Z,24.90
2019-02-14T05:39:41.910Z,25.77
2019-02-14T05:42:14.256Z,24.37
2019-02-14T05:44:42.862Z,26.03
2019-02-14T05:47:11.496Z,25.10
2019-02-14T05:49:40.108Z,24.93
2019-02-14T05:52:08.728Z,26.80
2019-02-14T05:54:37.335Z,26.50
2019-02-14T05:57:06.280Z,25.33
2019-02-14T05:59:34.895Z,25.50
2019-02-14T06:02:03.504Z,24.80
2019-02-14T06:04:32.134Z,24.93
2019-02-14T06:07:01.296Z,25.27
2019-02-14T06:09:30.050Z,25.83
2019-02-14T06:11:58.643Z,24.97
2019-02-14T06:14:27.260Z,24.97
2019-02-14T06:16:55.864Z,24.67
2019-02-14T06:19:24.480Z,24.97
2019-02-14T06:21:53.191Z,24.47
2019-02-14T06:24:21.819Z,24.40
2019-02-14T06:26:50.655Z,23.03
2019-02-14T06:29:19.316Z,23.63
2019-02-14T06:31:47.915Z,25.70
2019-02-14T06:34:16.548Z,26.80
2019-02-14T06:36:45.147Z,25.13
2019-02-14T06:39:14.059Z,26.67
2019-02-14T06:41:42.648Z,25.57
2019-02-14T06:44:11.295Z,25.30
2019-02-14T06:46:40.120Z,25.60
2019-02-14T06:49:08.763Z,24.83
2019-02-14T06:51:37.588Z,26.07
2019-02-14T06:54:06.204Z,24.93
2019-02-14T06:56:34.817Z,24.43
2019-02-14T06:59:03.445Z,25.83
2019-02-14T07:01:32.044Z,24.07
2019-02-14T07:04:00.668Z,26.07
2019-02-14T07:06:29.263Z,24.83
2019-02-14T07:08:57.922Z,24.30
2019-02-14T07:11:26.542Z,25.23
2019-02-14T07:13:55.159Z,25.10
2019-02-14T07:16:23.766Z,24.70
2019-02-14T07:18:52.499Z,25.30
2019-02-14T07:21:21.792Z,25.73
2019-02-14T07:23:50.519Z,25.80
2019-02-14T07:26:19.131Z,27.03
2019-02-14T07:28:47.780Z,25.97
2019-02-14T07:31:16.637Z,26.13
2019-02-14T07:33:45.266Z,26.73
2019-02-14T07:36:13.908Z,26.33
2019-02-14T07:38:42.741Z,25.80
2019-02-14T07:41:11.356Z,26.40
2019-02-14T07:43:39.996Z,26.67
2019-02-14T07:46:08.601Z,26.20
2019-02-14T07:48:37.253Z,25.73
2019-02-14T07:51:05.868Z,25.90
2019-02-14T07:53:34.522Z,26.73
2019-02-14T07:56:03.221Z,25.77
2019-02-14T07:58:31.884Z,26.10
2019-02-14T08:01:00.641Z,25.40
2019-02-14T08:03:29.299Z,25.53
2019-02-14T08:05:57.950Z,25.23
2019-02-14T08:08:26.809Z,26.10
2019-02-14T08:10:55.476Z,25.47
2019-02-14T08:13:26.974Z,24.40
2019-02-14T08:15:55.588Z,24.93
2019-02-14T08:18:24.206Z,23.77
2019-02-14T08:20:52.838Z,25.30
2019-02-14T08:23:21.729Z,23.27
2019-02-14T08:25:50.453Z,23.30
2019-02-14T08:28:19.100Z,23.23
2019-02-14T08:30:47.774Z,23.50
2019-02-14T08:33:16.651Z,22.93
2019-02-14T08:35:45.520Z,22.13
2019-02-14T08:38:14.211Z,21.80
2019-02-14T08:40:43.105Z,21.70
2019-02-14T08:43:11.707Z,21.77
2019-02-14T08:45:40.334Z,21.23
2019-02-14T08:48:08.996Z,21.57
2019-02-14T08:50:37.623Z,21.43
2019-02-14T08:53:06.862Z,18.20
2019-02-14T08:55:35.483Z,20.57
2019-02-14T08:58:04.175Z,20.90
2019-02-14T09:00:33.047Z,20.17
2019-02-14T09:03:03.878Z,21.07
2019-02-14T09:05:32.505Z,21.03
2019-02-14T09:08:01.108Z,21.40
2019-02-14T09:10:29.759Z,20.40
2019-02-14T09:12:58.596Z,20.30
2019-02-14T09:15:27.636Z,21.97
2019-02-14T09:17:56.418Z,21.20
2019-02-14T09:20:25.093Z,20.57
2019-02-14T09:22:53.698Z,20.33
2019-02-14T09:25:22.335Z,21.43
2019-02-14T09:27:50.957Z,21.03
2019-02-14T09:30:19.642Z,19.90
2019-02-14T09:32:48.439Z,21.27
2019-02-14T09:35:17.057Z,20.90
2019-02-14T09:37:45.769Z,20.47
2019-02-14T09:40:14.407Z,19.60
2019-02-14T09:42:43.104Z,19.57
2019-02-14T09:45:11.914Z,19.93
2019-02-14T09:47:40.499Z,20.43
2019-02-14T09:50:10.020Z,18.43
2019-02-14T09:52:38.713Z,17.20
2019-02-14T09:55:07.768Z,19.20
2019-02-14T09:57:38.348Z,17.73
2019-02-14T10:00:09.728Z,16.83
2019-02-14T10:02:38.376Z,17.40
2019-02-14T10:05:07.625Z,17.30
2019-02-14T10:07:36.466Z,17.43
2019-02-14T10:10:06.369Z,17.40
2019-02-14T10:12:34.984Z,17.00
2019-02-14T10:15:04.960Z,17.30
2019-02-14T10:17:33.647Z,16.70
2019-02-14T10:20:02.300Z,17.50
2019-02-14T10:22:30.919Z,18.07
2019-02-14T10:24:59.547Z,18.60
2019-02-14T10:27:28.399Z,17.67
2019-02-14T10:29:57.046Z,18.07
2019-02-14T10:32:25.684Z,17.87
2019-02-14T10:34:54.289Z,16.67
2019-02-14T10:37:22.903Z,16.00
2019-02-14T10:39:51.495Z,16.33
2019-02-14T10:42:20.113Z,16.00
2019-02-14T10:44:48.737Z,16.30
2019-02-14T10:47:17.367Z,15.33
2019-02-14T10:49:45.999Z,14.60
2019-02-14T10:52:14.780Z,14.77
2019-02-14T10:54:43.455Z,14.63
2019-02-14T10:57:12.055Z,14.70
2019-02-14T10:59:40.904Z,14.03
2019-02-14T11:02:09.598Z,13.80
2019-02-14T11:04:38.415Z,12.10
2019-02-14T11:07:07.108Z,12.60
2019-02-14T11:09:35.828Z,13.13
2019-02-14T11:12:04.524Z,11.00
2019-02-14T11:14:33.151Z,11.70
2019-02-14T11:17:01.810Z,11.57
2019-02-14T11:19:30.443Z,11.67
2019-02-14T11:21:59.132Z,11.77
2019-02-14T11:24:27.755Z,10.83
2019-02-14T11:26:56.392Z,10.77
2019-02-14T11:29:25.042Z,10.63
2019-02-14T11:31:53.712Z,10.40
2019-02-14T11:34:22.350Z,9.70
2019-02-14T11:36:50.963Z,10.10
2019-02-14T11:39:19.617Z,9.10
2019-02-14T11:41:48.247Z,9.40
2019-02-14T11:44:16.867Z,9.80
2019-02-14T11:46:51.274Z,9.20
2019-02-14T11:49:15.822Z,8.27
2019-02-14T11:51:44.448Z,8.97
2019-02-14T11:54:13.043Z,8.70
2019-02-14T11:56:41.700Z,8.63
2019-02-14T11:59:10.311Z,8.30
2019-02-14T12:01:38.936Z,8.17
2019-02-14T12:04:07.768Z,8.40
2019-02-14T12:06:36.643Z,8.70
2019-02-14T12:09:06.410Z,9.87
2019-02-14T12:11:35.027Z,8.70
2019-02-14T12:14:03.663Z,8.10
2019-02-14T12:16:32.322Z,8.33
2019-02-14T12:19:00.943Z,9.30
2019-02-14T12:21:29.591Z,8.00
2019-02-14T12:23:58.223Z,9.03
2019-02-14T12:26:26.859Z,8.60
2019-02-14T12:28:55.469Z,7.50
2019-02-14T12:31:24.095Z,6.60
2019-02-14T12:33:52.934Z,5.60
2019-02-14T12:36:21.789Z,5.33
2019-02-14T12:38:50.401Z,4.83
2019-02-14T12:41:19.347Z,5.17
2019-02-14T12:43:47.950Z,4.80
2019-02-14T12:46:16.856Z,5.10
2019-02-14T12:48:45.473Z,4.80
2019-02-14T12:51:14.091Z,5.63
2019-02-14T12:53:42.716Z,4.90
2019-02-14T12:56:11.345Z,5.20
2019-02-14T12:58:40.020Z,5.50
2019-02-14T13:01:08.656Z,5.60
2019-02-14T13:03:37.270Z,5.67
2019-02-14T13:06:05.946Z,5.20
2019-02-14T13:08:34.586Z,5.90
2019-02-14T13:11:03.355Z,5.63
2019-02-14T13:13:32.107Z,5.50
2019-02-14T13:16:01.029Z,5.40
2019-02-14T13:18:29.920Z,5.13
2019-02-14T13:20:58.732Z,5.37
2019-02-14T13:23:27.633Z,6.10
2019-02-14T13:25:56.307Z,5.70
2019-02-14T13:28:25.010Z,5.33
2019-02-14T13:30:53.710Z,5.70
2019-02-14T13:33:22.430Z,5.40
2019-02-14T13:35:51.292Z,5.40
2019-02-14T13:38:20.078Z,5.77
2019-02-14T13:40:48.844Z,5.63
2019-02-14T13:43:17.478Z,5.80
2019-02-14T13:45:46.083Z,5.30
2019-02-14T13:48:14.740Z,5.00
2019-02-14T13:50:43.383Z,5.10
2019-02-14T13:53:12.279Z,5.47
2019-02-14T13:55:40.915Z,4.90
2019-02-14T13:58:09.598Z,4.87
2019-02-14T14:00:37.838Z,4.63
2019-02-14T14:03:06.488Z,4.53
2019-02-14T14:05:35.204Z,4.93
2019-02-14T14:08:03.896Z,4.40
2019-02-14T14:10:32.596Z,4.53
2019-02-14T14:13:01.239Z,5.17
2019-02-14T14:15:29.859Z,4.80
2019-02-14T14:17:58.751Z,5.10
2019-02-14T14:20:27.391Z,4.60
2019-02-14T14:22:56.214Z,4.87
2019-02-14T14:25:24.835Z,5.63
2019-02-14T14:27:53.455Z,5.80
2019-02-14T14:30:22.051Z,5.70
2019-02-14T14:32:50.867Z,5.87
2019-02-14T14:35:19.488Z,5.53
2019-02-14T14:37:48.116Z,4.97
2019-02-14T14:40:16.743Z,5.80
2019-02-14T14:43:04.701Z,4.80
2019-02-14T14:45:56.864Z,5.60
2019-02-14T14:48:27.632Z,4.97
2019-02-14T14:50:56.236Z,5.17
2019-02-14T14:53:24.864Z,4.60
2019-02-14T14:55:53.483Z,4.80
2019-02-14T14:58:22.376Z,5.40
2019-02-14T15:00:50.987Z,5.20
2019-02-14T15:03:19.612Z,5.07
2019-02-14T15:05:48.279Z,5.17
2019-02-14T15:08:16.920Z,5.27
2019-02-14T15:10:45.524Z,5.93
2019-02-14T15:13:14.179Z,5.73
2019-02-14T15:15:42.804Z,5.30
2019-02-14T15:18:11.435Z,6.30
2019-02-14T15:20:40.057Z,6.20
2019-02-14T15:23:08.697Z,5.77
2019-02-14T15:25:37.335Z,6.00
2019-02-14T15:28:06.234Z,5.73
2019-02-14T15:30:35.115Z,6.33
2019-02-14T15:33:03.732Z,5.80
2019-02-14T15:35:32.336Z,6.50
2019-02-14T15:38:01.071Z,6.20
2019-02-14T15:40:29.719Z,7.33
2019-02-14T15:42:58.361Z,7.30
2019-02-14T15:45:27.066Z,6.40
2019-02-14T15:47:55.695Z,6.70
2019-02-14T15:50:24.314Z,6.70
2019-02-14T15:52:54.648Z,6.40
2019-02-14T15:55:24.323Z,7.10
2019-02-14T15:57:53.096Z,6.57
2019-02-14T16:00:21.750Z,6.80
2019-02-14T16:02:52.010Z,5.83
2019-02-14T16:05:20.834Z,5.90
2019-02-14T16:07:49.479Z,7.07
2019-02-14T16:10:18.975Z,6.40
2019-02-14T16:12:47.684Z,6.30
2019-02-14T16:15:16.709Z,7.00
2019-02-14T16:17:45.596Z,6.37
2019-02-14T16:20:15.354Z,6.40
2019-02-14T16:22:45.022Z,6.70
2019-02-14T16:25:13.637Z,6.30
2019-02-14T16:27:42.288Z,6.87
2019-02-14T16:30:11.274Z,7.53
2019-02-14T16:32:40.011Z,7.33
2019-02-14T16:35:08.757Z,7.40
2019-02-14T16:37:37.407Z,7.20
2019-02-14T16:40:07.353Z,6.70
2019-02-14T16:42:36.000Z,6.30
2019-02-14T16:45:05.078Z,7.23
2019-02-14T16:47:33.699Z,6.87
2019-02-14T16:50:02.439Z,7.00
2019-02-14T16:52:31.255Z,6.90
2019-02-14T16:54:59.907Z,9.50
2019-02-14T16:57:28.524Z,9.60
2019-02-14T16:59:57.212Z,7.20
2019-02-14T17:02:25.807Z,8.13
2019-02-14T17:04:55.233Z,7.63
2019-02-14T17:07:23.836Z,7.17
2019-02-14T17:09:56.138Z,8.30
2019-02-14T17:12:29.292Z,9.97
2019-02-14T17:14:57.915Z,11.30
2019-02-14T17:17:28.033Z,11.30
2019-02-14T17:19:56.898Z,12.33
2019-02-14T17:22:25.540Z,12.67
2019-02-14T17:24:54.163Z,14.67
2019-02-14T17:27:22.808Z,13.33
2019-02-14T17:29:51.480Z,11.20
2019-02-14T17:32:20.108Z,12.80
2019-02-14T17:34:48.743Z,10.77
2019-02-14T17:37:17.416Z,10.30
2019-02-14T17:39:46.053Z,11.83
2019-02-14T17:42:14.708Z,12.43
2019-02-14T17:44:43.325Z,14.90
2019-02-14T17:47:11.991Z,15.00
2019-02-14T17:49:40.676Z,14.67
2019-02-14T17:52:09.299Z,15.23
2019-02-14T17:54:38.149Z,17.37
2019-02-14T17:57:06.775Z,15.17
2019-02-14T17:59:35.619Z,15.40
2019-02-14T18:02:04.258Z,15.20
2019-02-14T18:04:32.879Z,17.70
2019-02-14T18:07:01.615Z,16.83
2019-02-14T18:09:30.248Z,20.20
2019-02-14T18:11:58.940Z,22.43
2019-02-14T18:14:27.583Z,23.10
2019-02-14T18:16:56.199Z,22.30
2019-02-14T18:19:24.834Z,20.17
2019-02-14T18:21:53.529Z,20.43
2019-02-14T18:24:22.160Z,21.00
2019-02-14T18:26:50.789Z,21.80
2019-02-14T18:29:19.448Z,19.90
2019-02-14T18:31:48.065Z,17.70
2019-02-14T18:34:16.812Z,17.20
2019-02-14T18:36:45.421Z,17.13
2019-02-14T18:39:14.049Z,17.30
2019-02-14T18:41:42.720Z,17.77
2019-02-14T18:44:11.385Z,16.83
2019-02-14T18:46:39.980Z,17.50
2019-02-14T18:49:08.631Z,18.83
2019-02-14T18:51:37.247Z,17.50
2019-02-14T18:54:05.852Z,18.07
2019-02-14T18:56:34.449Z,17.77
2019-02-14T18:59:03.233Z,17.10
2019-02-14T19:01:31.827Z,17.00
2019-02-14T19:04:00.697Z,16.80
2019-02-14T19:06:29.326Z,16.40
2019-02-14T19:08:57.960Z,16.90
2019-02-14T19:11:26.574Z,15.50
2019-02-14T19:13:55.443Z,16.00
2019-02-14T19:16:24.040Z,14.73
2019-02-14T19:18:52.687Z,16.60
2019-02-14T19:21:21.303Z,17.00
2019-02-14T19:23:49.939Z,19.33
2019-02-14T19:26:18.581Z,20.50
2019-02-14T19:28:47.716Z,16.13
2019-02-14T19:31:16.415Z,14.80
2019-02-14T19:33:45.074Z,15.17
2019-02-14T19:36:13.766Z,15.77
2019-02-14T19:38:42.455Z,16.20
2019-02-14T19:41:11.343Z,17.20
2019-02-14T19:43:40.032Z,18.70
2019-02-14T19:46:08.643Z,16.00
2019-02-14T19:48:37.340Z,16.00
2019-02-14T19:51:05.969Z,19.70
2019-02-14T19:53:35.578Z,19.70
2019-02-14T19:56:04.203Z,14.67
2019-02-14T19:58:32.873Z,15.43
2019-02-14T20:01:01.695Z,15.20
2019-02-14T20:03:31.968Z,16.40
2019-02-14T20:06:00.954Z,13.53
2019-02-14T20:08:29.603Z,14.30
2019-02-14T20:10:58.240Z,12.50
2019-02-14T20:13:27.028Z,15.60
2019-02-14T20:15:55.885Z,15.07
2019-02-14T20:18:24.814Z,16.00
2019-02-14T20:20:53.428Z,15.93
2019-02-14T20:23:22.135Z,12.77
2019-02-14T20:25:50.763Z,13.83
2019-02-14T20:28:19.403Z,13.80
2019-02-14T20:30:48.034Z,13.83
2019-02-14T20:33:16.730Z,13.70
2019-02-14T20:35:45.365Z,13.60
2019-02-14T20:38:14.082Z,16.10
2019-02-14T20:40:42.759Z,15.53
2019-02-14T20:43:11.351Z,17.07
2019-02-14T20:45:40.024Z,13.70
2019-02-14T20:48:08.668Z,14.27
2019-02-14T20:50:37.364Z,15.37
2019-02-14T20:53:06.053Z,15.43
2019-02-14T20:55:34.723Z,13.47
2019-02-14T20:58:03.383Z,12.87
2019-02-14T21:00:33.136Z,11.37
2019-02-14T21:03:01.790Z,10.60
2019-02-14T21:05:31.091Z,11.27
2019-02-14T21:07:59.947Z,10.93
2019-02-14T21:10:28.660Z,10.67
2019-02-14T21:12:57.661Z,10.67
2019-02-14T21:15:26.618Z,11.10
2019-02-14T21:17:55.259Z,10.03
2019-02-14T21:20:23.928Z,10.50
2019-02-14T21:22:52.554Z,11.47
2019-02-14T21:25:23.391Z,12.07
2019-02-14T21:27:51.600Z,11.03
2019-02-14T21:30:20.454Z,11.40
2019-02-14T21:32:49.175Z,11.50
2019-02-14T21:35:18.198Z,12.10
2019-02-14T21:37:47.049Z,11.10
2019-02-14T21:40:16.014Z,11.17
2019-02-14T21:42:45.063Z,11.50
2019-02-14T21:45:13.726Z,11.70
2019-02-14T21:47:42.349Z,12.00
2019-02-14T21:50:11.262Z,10.77
2019-02-14T21:52:39.994Z,10.80
2019-02-14T21:55:09.513Z,13.13
2019-02-14T21:57:38.261Z,12.10
2019-02-14T22:00:10.237Z,11.40
2019-02-14T22:02:38.854Z,9.93
2019-02-14T22:05:08.803Z,11.53
2019-02-14T22:07:37.552Z,10.17
2019-02-14T22:10:06.656Z,9.90
2019-02-14T22:12:40.825Z,10.23
2019-02-14T22:15:06.847Z,9.43
2019-02-14T22:17:35.495Z,10.47
2019-02-14T22:20:04.826Z,10.63
2019-02-14T22:22:33.487Z,10.97
2019-02-14T22:25:02.199Z,10.90
2019-02-14T22:27:30.824Z,10.87
2019-02-14T22:29:59.542Z,11.17
2019-02-14T22:32:28.236Z,10.90
2019-02-14T22:34:56.887Z,10.90
2019-02-14T22:37:25.523Z,11.13
2019-02-14T22:39:54.150Z,10.40
2019-02-14T22:42:22.771Z,10.87
2019-02-14T22:44:51.415Z,11.60
2019-02-14T22:47:20.067Z,11.20
2019-02-14T22:49:48.739Z,11.70
2019-02-14T22:52:17.353Z,11.23
2019-02-14T22:54:46.161Z,11.10
2019-02-14T22:57:14.803Z,10.47
2019-02-14T22:59:43.425Z,10.77
2019-02-14T23:02:12.175Z,11.47
2019-02-14T23:04:41.036Z,12.30
2019-02-14T23:07:09.907Z,12.10
2019-02-14T23:09:38.530Z,11.47
2019-02-14T23:12:07.194Z,11.07
2019-02-14T23:14:35.811Z,10.93
2019-02-14T23:17:04.536Z,11.60
2019-02-14T23:19:33.175Z,11.10
2019-02-14T23:22:01.993Z,11.47
2019-02-14T23:24:30.607Z,11.10
2019-02-14T23:26:59.265Z,10.23
2019-02-14T23:29:27.895Z,11.50
2019-02-14T23:31:56.532Z,11.20
2019-02-14T23:34:25.191Z,10.73
2019-02-14T23:36:53.851Z,11.20
2019-02-14T23:39:22.468Z,10.00
2019-02-14T23:41:51.115Z,10.83
2019-02-14T23:44:19.731Z,12.13
2019-02-14T23:46:48.399Z,12.03
2019-02-14T23:49:17.248Z,12.43
2019-02-14T23:51:46.101Z,11.10
2019-02-14T23:54:15.004Z,12.53
2019-02-14T23:56:43.675Z,11.07
2019-02-14T23:59:12.300Z,11.10
